Time;durP1;ratioP1;P1;durP2;ratioP2;P2;SDS_P1;SDS_P2;PMS_P1;PMS_P2;Temp;Humidity;BMP_temperature;BMP_pressure;BME280_temperature;BME280_humidity;BME280_pressure;Samples;Min_cycle;Max_cycle;Signal;HPM_P1;HPM_P2
2023/07/20 00:02:13;;;;;;;4.13;3.25;;;;;;;;;;5037661;28;20605;-74
2023/07/20 00:04:39;;;;;;;3.42;1.90;;;;;;;;;;5032335;28;20025;-74
2023/07/20 00:07:05;;;;;;;3.25;2.00;;;;;;;;;;5032108;28;20075;-74
2023/07/20 00:09:30;;;;;;;4.03;2.30;;;;;;;;;;5030876;28;20028;-74
2023/07/20 00:11:56;;;;;;;6.57;1.60;;;;;;;;;;5032239;28;20044;-71
2023/07/20 00:14:21;;;;;;;4.82;2.28;;;;;;;;;;5032285;28;20021;-71
2023/07/20 00:16:55;;;;;;;3.05;1.90;;;;;;;;;;5031996;28;20512;-67
2023/07/20 00:19:20;;;;;;;2.97;2.00;;;;;;;;;;5032166;28;20101;-66
2023/07/20 00:21:46;;;;;;;5.13;1.67;;;;;;;;;;5032302;28;20597;-65
2023/07/20 00:24:11;;;;;;;5.60;2.20;;;;;;;;;;5031818;28;20499;-66
2023/07/20 00:26:37;;;;;;;3.67;1.90;;;;;;;;;;5032047;28;20026;-66
2023/07/20 00:29:02;;;;;;;3.85;1.90;;;;;;;;;;5031876;28;20049;-66
2023/07/20 00:31:29;;;;;;;5.07;1.80;;;;;;;;;;5031623;28;20363;-67
2023/07/20 00:33:54;;;;;;;5.53;1.60;;;;;;;;;;5032029;28;20084;-66
2023/07/20 00:36:20;;;;;;;4.00;2.00;;;;;;;;;;5031993;28;20419;-67
2023/07/20 00:38:45;;;;;;;2.72;1.40;;;;;;;;;;5034768;28;20021;-66
2023/07/20 00:41:10;;;;;;;2.30;1.30;;;;;;;;;;5035405;28;20030;-65
2023/07/20 00:43:36;;;;;;;1.77;1.20;;;;;;;;;;5035419;28;20029;-66
2023/07/20 00:46:02;;;;;;;3.75;1.40;;;;;;;;;;5035224;28;20057;-66
2023/07/20 00:48:32;;;;;;;2.15;1.23;;;;;;;;;;5035205;28;20042;-66
2023/07/20 00:50:59;;;;;;;5.15;1.40;;;;;;;;;;5035185;28;20040;-66
2023/07/20 00:53:25;;;;;;;3.35;1.48;;;;;;;;;;5035441;28;20025;-66
2023/07/20 00:55:50;;;;;;;3.08;1.33;;;;;;;;;;5035262;28;20025;-66
2023/07/20 00:58:16;;;;;;;3.78;1.35;;;;;;;;;;5041415;28;20478;-67
2023/07/20 01:00:41;;;;;;;2.17;1.23;;;;;;;;;;5054915;28;20489;-66
2023/07/20 01:03:07;;;;;;;2.78;1.25;;;;;;;;;;5055118;28;20033;-67
2023/07/20 01:05:42;;;;;;;2.08;1.30;;;;;;;;;;5055112;28;20029;-67
2023/07/20 01:08:14;;;;;;;2.10;1.30;;;;;;;;;;5055112;28;20021;-66
2023/07/20 01:10:45;;;;;;;2.28;1.40;;;;;;;;;;5055140;28;20021;-66
2023/07/20 01:13:13;;;;;;;5.63;1.55;;;;;;;;;;5055026;28;20040;-65
2023/07/20 01:15:39;;;;;;;2.65;1.50;;;;;;;;;;5054755;28;20033;-66
2023/07/20 01:18:04;;;;;;;2.08;1.30;;;;;;;;;;5054882;28;20359;-69
2023/07/20 01:20:32;;;;;;;2.50;1.30;;;;;;;;;;5041103;28;20029;-65
2023/07/20 01:23:13;;;;;;;4.32;1.50;;;;;;;;;;5034642;28;20430;-66
2023/07/20 01:25:44;;;;;;;2.83;1.48;;;;;;;;;;5034761;28;20030;-65
2023/07/20 01:28:19;;;;;;;1.58;1.17;;;;;;;;;;5034717;28;20414;-66
2023/07/20 01:31:24;;;;;;;3.58;1.70;;;;;;;;;;5034553;28;20083;-68
2023/07/20 01:33:56;;;;;;;1.85;1.23;;;;;;;;;;5033359;28;20084;-65
2023/07/20 01:36:24;;;;;;;2.20;1.40;;;;;;;;;;5034725;28;20355;-72
2023/07/20 01:38:51;;;;;;;3.20;1.30;;;;;;;;;;5034505;28;20021;-71
2023/07/20 01:41:18;;;;;;;4.65;1.65;;;;;;;;;;5034626;28;20033;-65
2023/07/20 01:43:43;;;;;;;5.07;1.65;;;;;;;;;;5034233;28;20036;-69
2023/07/20 01:46:08;;;;;;;2.90;1.50;;;;;;;;;;5034424;28;20034;-68
2023/07/20 01:48:34;;;;;;;3.10;1.60;;;;;;;;;;5033783;28;20045;-67
2023/07/20 01:50:59;;;;;;;2.22;1.50;;;;;;;;;;5033821;28;20386;-67
2023/07/20 01:53:25;;;;;;;4.93;1.70;;;;;;;;;;5034296;28;20029;-65
2023/07/20 01:55:53;;;;;;;2.70;1.45;;;;;;;;;;5034398;28;20032;-65
2023/07/20 01:58:19;;;;;;;4.10;1.50;;;;;;;;;;5037043;28;20390;-66
2023/07/20 02:00:44;;;;;;;3.17;1.50;;;;;;;;;;5053991;28;20104;-67
2023/07/20 02:03:11;;;;;;;3.78;1.65;;;;;;;;;;5054095;28;20059;-65
2023/07/20 02:05:37;;;;;;;2.58;1.50;;;;;;;;;;5053988;28;20108;-65
2023/07/20 02:08:03;;;;;;;2.60;1.55;;;;;;;;;;5053861;28;20108;-66
2023/07/20 02:10:28;;;;;;;3.60;1.60;;;;;;;;;;5053804;28;20024;-68
2023/07/20 02:12:54;;;;;;;3.83;1.80;;;;;;;;;;5053609;28;20037;-70
2023/07/20 02:15:20;;;;;;;2.53;1.70;;;;;;;;;;5053756;28;20075;-66
2023/07/20 02:17:46;;;;;;;3.63;1.80;;;;;;;;;;5053744;28;20029;-72
2023/07/20 02:20:11;;;;;;;4.85;1.90;;;;;;;;;;5042529;28;20028;-74
2023/07/20 02:22:38;;;;;;;2.85;1.60;;;;;;;;;;5033621;28;20124;-73
2023/07/20 02:25:07;;;;;;;4.97;1.90;;;;;;;;;;5033659;28;20475;-66
2023/07/20 02:27:33;;;;;;;2.33;1.58;;;;;;;;;;5033534;28;20068;-74
2023/07/20 02:29:59;;;;;;;4.75;1.52;;;;;;;;;;5033639;28;20104;-74
2023/07/20 02:32:24;;;;;;;2.65;1.52;;;;;;;;;;5033470;28;20519;-73
2023/07/20 02:34:50;;;;;;;3.35;1.58;;;;;;;;;;5033613;28;20125;-74
2023/07/20 02:37:16;;;;;;;2.88;1.75;;;;;;;;;;5013928;28;20472;-74
2023/07/20 02:39:42;;;;;;;3.33;1.75;;;;;;;;;;5013821;28;20022;-74
2023/07/20 02:42:07;;;;;;;4.15;1.85;;;;;;;;;;5013363;28;20482;-70
2023/07/20 02:44:33;;;;;;;3.03;1.52;;;;;;;;;;5013748;28;20032;-74
2023/07/20 02:46:58;;;;;;;2.60;1.88;;;;;;;;;;5013584;28;20475;-66
2023/07/20 02:49:24;;;;;;;3.75;1.73;;;;;;;;;;5013310;28;20042;-66
2023/07/20 02:51:49;;;;;;;2.35;1.60;;;;;;;;;;5013319;28;20030;-74
2023/07/20 02:54:15;;;;;;;2.15;1.42;;;;;;;;;;5013351;28;20034;-71
2023/07/20 02:56:40;;;;;;;3.70;1.95;;;;;;;;;;5013230;28;20079;-74
2023/07/20 02:59:06;;;;;;;3.72;1.70;;;;;;;;;;5013318;28;20026;-73
2023/07/20 03:01:31;;;;;;;2.63;1.80;;;;;;;;;;5047489;28;20025;-74
2023/07/20 03:03:57;;;;;;;2.95;1.92;;;;;;;;;;5052827;28;20039;-74
2023/07/20 03:06:23;;;;;;;2.42;1.70;;;;;;;;;;5052695;28;20064;-74
2023/07/20 03:08:53;;;;;;;3.17;2.00;;;;;;;;;;5052752;28;20555;-74
2023/07/20 03:11:20;;;;;;;2.88;1.77;;;;;;;;;;5052381;28;20544;-74
2023/07/20 03:13:46;;;;;;;4.20;1.98;;;;;;;;;;5052787;28;20474;-74
2023/07/20 03:16:15;;;;;;;2.90;1.60;;;;;;;;;;5052656;28;20025;-74
2023/07/20 03:18:41;;;;;;;5.75;1.98;;;;;;;;;;5052654;28;20118;-73
2023/07/20 03:21:08;;;;;;;3.92;1.58;;;;;;;;;;5033862;28;20029;-72
2023/07/20 03:23:33;;;;;;;2.92;1.65;;;;;;;;;;5023299;28;20036;-73
2023/07/20 03:25:59;;;;;;;3.30;1.50;;;;;;;;;;5032356;28;20034;-74
2023/07/20 03:28:25;;;;;;;3.05;1.60;;;;;;;;;;5032570;28;20029;-74
2023/07/20 03:30:57;;;;;;;3.35;1.42;;;;;;;;;;5032491;28;20028;-74
2023/07/20 03:33:25;;;;;;;7.35;2.15;;;;;;;;;;5032609;28;20029;-73
2023/07/20 03:35:50;;;;;;;4.10;1.50;;;;;;;;;;5032451;28;20025;-70
2023/07/20 03:38:16;;;;;;;2.03;1.30;;;;;;;;;;5032564;28;20029;-66
2023/07/20 03:41:02;;;;;;;8.63;2.35;;;;;;;;;;5032117;28;20033;-72
2023/07/20 03:43:28;;;;;;;2.92;1.58;;;;;;;;;;5032375;28;20049;-71
2023/07/20 03:45:54;;;;;;;2.53;1.50;;;;;;;;;;5032489;28;20080;-67
2023/07/20 03:48:22;;;;;;;3.20;1.50;;;;;;;;;;5032170;28;20056;-69
2023/07/20 03:50:48;;;;;;;3.42;1.42;;;;;;;;;;5032279;28;20498;-67
2023/07/20 03:53:15;;;;;;;3.30;1.58;;;;;;;;;;5032503;28;20545;-68
2023/07/20 03:55:51;;;;;;;2.85;1.42;;;;;;;;;;5031212;28;20061;-67
2023/07/20 03:58:18;;;;;;;5.85;1.90;;;;;;;;;;5032337;28;20029;-69
2023/07/20 04:00:48;;;;;;;3.80;1.50;;;;;;;;;;5036817;28;20039;-66
2023/07/20 04:03:14;;;;;;;5.38;1.60;;;;;;;;;;5052364;28;20386;-67
2023/07/20 04:05:39;;;;;;;8.00;2.92;;;;;;;;;;5052250;28;20100;-66
2023/07/20 04:08:05;;;;;;;5.35;1.80;;;;;;;;;;5052031;28;20611;-68
2023/07/20 04:10:30;;;;;;;3.13;1.70;;;;;;;;;;5052103;28;20057;-66
2023/07/20 04:12:56;;;;;;;3.72;1.50;;;;;;;;;;5053792;28;20028;-68
2023/07/20 04:15:21;;;;;;;3.70;1.50;;;;;;;;;;5056027;28;20100;-68
2023/07/20 04:17:47;;;;;;;2.50;1.60;;;;;;;;;;5056016;28;20453;-66
2023/07/20 04:20:12;;;;;;;4.05;1.85;;;;;;;;;;5044410;28;20390;-65
2023/07/20 04:22:38;;;;;;;3.90;1.98;;;;;;;;;;5035446;28;20087;-65
2023/07/20 04:25:04;;;;;;;3.08;1.83;;;;;;;;;;5035837;28;20101;-66
2023/07/20 04:27:30;;;;;;;4.68;1.90;;;;;;;;;;5035584;28;20383;-65
2023/07/20 04:29:57;;;;;;;3.50;2.10;;;;;;;;;;5035559;28;20030;-66
2023/07/20 04:32:23;;;;;;;3.05;1.85;;;;;;;;;;5035571;28;20047;-66
2023/07/20 04:34:48;;;;;;;3.38;2.00;;;;;;;;;;5035672;28;20029;-65
2023/07/20 04:37:14;;;;;;;4.53;1.90;;;;;;;;;;5035316;28;20036;-68
2023/07/20 04:39:39;;;;;;;2.88;1.80;;;;;;;;;;5035400;28;20030;-67
2023/07/20 04:42:05;;;;;;;4.10;1.90;;;;;;;;;;5035638;28;20032;-66
2023/07/20 04:44:30;;;;;;;2.97;2.25;;;;;;;;;;5035417;28;20375;-67
2023/07/20 04:46:55;;;;;;;4.32;1.90;;;;;;;;;;5034195;28;20048;-70
2023/07/20 04:49:21;;;;;;;5.63;2.28;;;;;;;;;;5035371;28;20049;-65
2023/07/20 04:51:46;;;;;;;2.83;1.88;;;;;;;;;;5034953;28;20478;-70
2023/07/20 04:54:13;;;;;;;3.63;2.20;;;;;;;;;;5035143;28;20033;-67
2023/07/20 04:56:38;;;;;;;3.88;2.05;;;;;;;;;;5035261;28;20525;-65
2023/07/20 04:59:04;;;;;;;5.70;1.88;;;;;;;;;;5035385;28;20083;-65
2023/07/20 05:01:29;;;;;;;4.88;1.60;;;;;;;;;;5043045;28;20037;-65
2023/07/20 05:03:55;;;;;;;5.53;1.70;;;;;;;;;;5055022;28;20021;-66
2023/07/20 05:06:20;;;;;;;3.17;1.90;;;;;;;;;;5054830;28;20028;-66
2023/07/20 05:08:46;;;;;;;3.70;2.00;;;;;;;;;;5054936;28;20037;-67
2023/07/20 05:11:11;;;;;;;2.95;1.70;;;;;;;;;;5054923;28;20036;-68
2023/07/20 05:13:37;;;;;;;2.97;1.75;;;;;;;;;;5054785;28;20021;-66
2023/07/20 05:16:03;;;;;;;2.65;1.38;;;;;;;;;;5053543;28;20031;-67
2023/07/20 05:18:28;;;;;;;4.05;1.75;;;;;;;;;;5054941;28;20059;-67
2023/07/20 05:20:55;;;;;;;2.33;1.70;;;;;;;;;;5037353;28;20083;-65
2023/07/20 05:23:20;;;;;;;2.42;1.60;;;;;;;;;;5033966;28;20467;-71
2023/07/20 05:25:46;;;;;;;4.75;1.60;;;;;;;;;;5032989;28;20040;-70
2023/07/20 05:28:12;;;;;;;2.40;1.63;;;;;;;;;;5034692;28;20460;-69
2023/07/20 05:30:37;;;;;;;4.35;1.80;;;;;;;;;;5034568;28;20026;-70
2023/07/20 05:33:03;;;;;;;4.10;1.55;;;;;;;;;;5034519;28;20029;-73
2023/07/20 05:35:28;;;;;;;3.17;1.67;;;;;;;;;;5034200;28;20029;-70
2023/07/20 05:37:54;;;;;;;4.82;1.85;;;;;;;;;;5034145;28;20387;-66
2023/07/20 05:40:20;;;;;;;2.60;1.40;;;;;;;;;;5034471;28;20057;-72
2023/07/20 05:42:47;;;;;;;3.78;1.73;;;;;;;;;;5034400;28;20033;-69
2023/07/20 05:45:13;;;;;;;4.05;1.80;;;;;;;;;;5034434;28;20095;-71
2023/07/20 05:47:39;;;;;;;5.10;1.55;;;;;;;;;;5034130;28;20574;-74
2023/07/20 05:50:05;;;;;;;2.33;1.20;;;;;;;;;;5034015;28;20060;-73
2023/07/20 05:52:30;;;;;;;3.55;1.40;;;;;;;;;;5034085;28;20053;-71
2023/07/20 05:54:56;;;;;;;2.38;1.40;;;;;;;;;;5034230;28;20044;-70
2023/07/20 05:57:21;;;;;;;2.92;1.35;;;;;;;;;;5034121;28;20053;-74
2023/07/20 05:59:47;;;;;;;3.33;1.50;;;;;;;;;;5033979;28;20036;-73
2023/07/20 06:02:12;;;;;;;5.15;1.52;;;;;;;;;;5045429;28;20029;-74
2023/07/20 06:04:39;;;;;;;3.20;1.35;;;;;;;;;;5053712;28;20021;-74
2023/07/20 06:07:05;;;;;;;4.30;1.38;;;;;;;;;;5053875;28;20068;-71
2023/07/20 06:09:30;;;;;;;4.05;1.20;;;;;;;;;;5052470;28;20163;-74
2023/07/20 06:11:56;;;;;;;2.40;1.17;;;;;;;;;;5053777;28;20108;-73
2023/07/20 06:14:22;;;;;;;1.77;0.88;;;;;;;;;;5053682;28;20021;-73
2023/07/20 06:16:47;;;;;;;5.18;1.00;;;;;;;;;;5053656;28;20390;-74
2023/07/20 06:19:14;;;;;;;1.60;0.90;;;;;;;;;;5044734;28;20032;-74
2023/07/20 06:21:40;;;;;;;2.00;0.98;;;;;;;;;;5033713;28;20363;-73
2023/07/20 06:24:06;;;;;;;1.95;0.98;;;;;;;;;;5033579;28;20174;-74
2023/07/20 06:26:37;;;;;;;1.75;0.80;;;;;;;;;;5033716;28;20447;-74
2023/07/20 06:29:03;;;;;;;1.33;0.80;;;;;;;;;;5033304;28;20483;-75
2023/07/20 06:31:28;;;;;;;2.30;0.88;;;;;;;;;;5033518;28;20106;-76
2023/07/20 06:33:54;;;;;;;1.25;0.68;;;;;;;;;;5026890;28;20025;-74
2023/07/20 06:36:19;;;;;;;1.02;0.70;;;;;;;;;;5030616;28;20076;-74
2023/07/20 06:38:45;;;;;;;1.90;0.80;;;;;;;;;;5020419;28;20030;-75
2023/07/20 06:41:10;;;;;;;1.58;0.70;;;;;;;;;;5031950;28;20075;-75
2023/07/20 06:43:35;;;;;;;1.17;0.68;;;;;;;;;;5033099;28;20029;-72
2023/07/20 06:46:01;;;;;;;1.65;0.80;;;;;;;;;;5033133;28;20116;-74
2023/07/20 06:48:26;;;;;;;1.92;1.08;;;;;;;;;;5031222;28;20076;-75
2023/07/20 06:50:52;;;;;;;1.80;0.70;;;;;;;;;;5041192;28;20564;-74
2023/07/20 06:53:17;;;;;;;1.27;0.73;;;;;;;;;;5032595;28;20033;-73
2023/07/20 06:55:43;;;;;;;3.28;1.10;;;;;;;;;;5033002;28;20053;-74
2023/07/20 06:58:09;;;;;;;3.38;1.40;;;;;;;;;;5032839;28;20025;-74
2023/07/20 07:00:34;;;;;;;4.18;0.93;;;;;;;;;;5032817;28;20079;-72
2023/07/20 07:03:00;;;;;;;3.55;1.10;;;;;;;;;;5044851;28;20033;-72
2023/07/20 07:05:26;;;;;;;4.85;1.10;;;;;;;;;;5052533;28;20021;-73
2023/07/20 07:07:51;;;;;;;1.73;0.82;;;;;;;;;;5046431;28;20045;-75
2023/07/20 07:10:18;;;;;;;2.13;0.80;;;;;;;;;;5032643;28;20521;-73
2023/07/20 07:12:43;;;;;;;2.70;1.10;;;;;;;;;;5032638;28;20037;-74
2023/07/20 07:15:10;;;;;;;1.40;0.90;;;;;;;;;;5031072;28;20031;-75
2023/07/20 07:17:36;;;;;;;1.08;0.77;;;;;;;;;;5032410;28;20053;-74
2023/07/20 07:20:01;;;;;;;1.67;0.80;;;;;;;;;;5032425;28;20045;-75
2023/07/20 07:22:27;;;;;;;1.65;0.70;;;;;;;;;;5032341;28;20025;-74
2023/07/20 07:24:52;;;;;;;1.00;0.60;;;;;;;;;;5032599;28;20531;-70
2023/07/20 07:27:18;;;;;;;1.05;0.68;;;;;;;;;;5032334;28;20026;-73
2023/07/20 07:29:44;;;;;;;1.05;0.75;;;;;;;;;;5032322;28;20030;-71
2023/07/20 07:32:10;;;;;;;4.28;0.75;;;;;;;;;;5032079;28;20025;-74
2023/07/20 07:34:36;;;;;;;3.50;0.95;;;;;;;;;;5032456;28;20030;-71
2023/07/20 07:37:03;;;;;;;1.58;1.00;;;;;;;;;;5032260;28;20025;-74
2023/07/20 07:39:29;;;;;;;0.93;0.70;;;;;;;;;;5032185;28;20033;-74
2023/07/20 07:41:55;;;;;;;2.17;0.70;;;;;;;;;;5026755;28;20029;-73
2023/07/20 07:44:21;;;;;;;4.35;1.58;;;;;;;;;;5012608;28;20026;-74
2023/07/20 07:46:46;;;;;;;3.00;0.90;;;;;;;;;;5012407;28;20032;-73
2023/07/20 07:49:12;;;;;;;1.52;0.80;;;;;;;;;;5016160;28;20057;-75
2023/07/20 07:51:37;;;;;;;2.80;0.80;;;;;;;;;;5016524;28;20026;-74
2023/07/20 07:54:03;;;;;;;2.90;1.00;;;;;;;;;;5015385;28;20080;-75
2023/07/20 07:56:29;;;;;;;1.77;0.80;;;;;;;;;;5016451;28;20022;-75
2023/07/20 07:58:54;;;;;;;2.17;0.80;;;;;;;;;;5016525;28;20376;-73
2023/07/20 08:01:20;;;;;;;1.38;0.70;;;;;;;;;;5016034;28;20080;-73
2023/07/20 08:03:47;;;;;;;3.25;0.98;;;;;;;;;;5043478;28;20033;-74
2023/07/20 08:06:13;;;;;;;2.45;0.80;;;;;;;;;;5054095;28;20061;-74
2023/07/20 08:08:38;;;;;;;3.60;1.20;;;;;;;;;;5035887;28;20090;-73
2023/07/20 08:11:04;;;;;;;4.15;1.20;;;;;;;;;;5035816;28;20557;-74
2023/07/20 08:13:29;;;;;;;1.60;0.80;;;;;;;;;;5036008;28;20378;-74
2023/07/20 08:15:55;;;;;;;4.80;0.80;;;;;;;;;;5035646;28;20486;-75
2023/07/20 08:18:21;;;;;;;1.98;0.70;;;;;;;;;;5035714;28;20402;-75
2023/07/20 08:20:47;;;;;;;1.13;0.60;;;;;;;;;;5035583;28;20033;-73
2023/07/20 08:23:13;;;;;;;1.60;0.77;;;;;;;;;;5035437;28;20033;-69
2023/07/20 08:25:41;;;;;;;2.60;1.10;;;;;;;;;;5035749;28;20207;-74
2023/07/20 08:28:08;;;;;;;2.42;0.90;;;;;;;;;;5035274;28;20022;-73
2023/07/20 08:30:47;;;;;;;1.05;0.65;;;;;;;;;;5035574;28;20104;-72
2023/07/20 08:33:18;;;;;;;2.28;0.65;;;;;;;;;;5035730;28;20501;-73
2023/07/20 08:35:43;;;;;;;1.42;0.70;;;;;;;;;;5036630;28;20084;-73
2023/07/20 08:38:09;;;;;;;2.85;0.80;;;;;;;;;;5036231;28;20406;-70
2023/07/20 08:40:40;;;;;;;1.73;0.70;;;;;;;;;;5035524;28;20026;-75
2023/07/20 08:43:06;;;;;;;2.05;0.75;;;;;;;;;;5019987;28;20025;-70
2023/07/20 08:45:33;;;;;;;1.42;0.70;;;;;;;;;;5015301;28;20533;-67
2023/07/20 08:48:02;;;;;;;1.45;0.77;;;;;;;;;;5015351;28;20470;-74
2023/07/20 08:50:29;;;;;;;5.03;0.85;;;;;;;;;;5015517;28;20029;-74
2023/07/20 08:52:57;;;;;;;1.40;0.70;;;;;;;;;;5015459;28;20434;-71
2023/07/20 08:55:23;;;;;;;1.92;0.70;;;;;;;;;;5015472;28;20026;-75
2023/07/20 08:57:51;;;;;;;2.60;0.70;;;;;;;;;;5014936;28;20479;-74
2023/07/20 09:00:19;;;;;;;2.65;0.70;;;;;;;;;;5015094;28;20360;-74
2023/07/20 09:02:45;;;;;;;2.97;0.75;;;;;;;;;;5023687;28;20423;-72
2023/07/20 09:05:14;;;;;;;2.58;0.75;;;;;;;;;;5054862;28;20028;-74
2023/07/20 09:07:40;;;;;;;2.67;0.60;;;;;;;;;;5054946;28;20564;-75
2023/07/20 09:10:06;;;;;;;2.50;0.60;;;;;;;;;;5054901;28;20108;-76
2023/07/20 09:12:35;;;;;;;2.00;0.60;;;;;;;;;;5054317;28;20504;-75
2023/07/20 09:15:01;;;;;;;1.80;0.60;;;;;;;;;;5054585;28;20084;-74
2023/07/20 09:17:26;;;;;;;1.70;0.70;;;;;;;;;;5054551;28;20478;-74
2023/07/20 09:19:52;;;;;;;4.40;0.60;;;;;;;;;;5045972;28;20103;-67
2023/07/20 09:22:17;;;;;;;1.45;0.63;;;;;;;;;;5034325;28;20329;-75
2023/07/20 09:24:44;;;;;;;2.83;0.65;;;;;;;;;;5034852;28;20021;-74
2023/07/20 09:27:10;;;;;;;3.15;0.60;;;;;;;;;;5034363;28;20049;-75
2023/07/20 09:29:56;;;;;;;4.38;0.80;;;;;;;;;;5034251;28;20040;-75
2023/07/20 09:32:22;;;;;;;1.42;0.70;;;;;;;;;;5066225;28;20533;-75
2023/07/20 09:34:50;;;;;;;1.02;0.60;;;;;;;;;;5034518;28;20029;-75
2023/07/20 09:37:23;;;;;;;2.28;0.82;;;;;;;;;;5034281;28;20022;-75
2023/07/20 09:39:51;;;;;;;2.20;0.60;;;;;;;;;;5034383;28;20056;-74
2023/07/20 09:42:18;;;;;;;1.92;0.57;;;;;;;;;;5025263;28;20029;-75
2023/07/20 09:44:45;;;;;;;1.65;0.70;;;;;;;;;;5014547;28;20076;-74
2023/07/20 09:47:11;;;;;;;3.03;0.57;;;;;;;;;;5045535;28;20033;-76
2023/07/20 09:49:40;;;;;;;0.70;0.50;;;;;;;;;;5014432;28;20083;-75
2023/07/20 09:52:09;;;;;;;1.77;0.65;;;;;;;;;;5014104;28;20491;-76
2023/07/20 09:54:37;;;;;;;1.20;0.50;;;;;;;;;;5014216;28;20034;-74
2023/07/20 09:57:02;;;;;;;3.17;0.60;;;;;;;;;;5013982;28;20372;-66
2023/07/20 09:59:28;;;;;;;1.05;0.50;;;;;;;;;;5014167;28;20097;-67
2023/07/20 10:01:57;;;;;;;2.42;0.70;;;;;;;;;;5016115;28;20372;-72
2023/07/20 10:04:23;;;;;;;2.70;1.00;;;;;;;;;;5048735;28;20025;-76
2023/07/20 10:06:52;;;;;;;3.13;0.90;;;;;;;;;;5052557;28;20116;-67
2023/07/20 10:09:18;;;;;;;5.53;1.00;;;;;;;;;;5050600;28;20032;-68
2023/07/20 10:11:50;;;;;;;1.55;0.63;;;;;;;;;;5023675;28;20088;-70
2023/07/20 10:14:19;;;;;;;3.58;0.90;;;;;;;;;;5013886;28;20026;-67
2023/07/20 10:16:52;;;;;;;1.43;0.70;;;;;;;;;;5013878;28;20033;-67
2023/07/20 10:19:25;;;;;;;2.10;0.85;;;;;;;;;;5017183;28;20064;-66
2023/07/20 10:22:01;;;;;;;0.80;0.60;;;;;;;;;;5033626;28;20148;-67
2023/07/20 10:24:28;;;;;;;2.15;0.80;;;;;;;;;;5033369;28;20535;-69
2023/07/20 10:26:55;;;;;;;1.10;0.65;;;;;;;;;;5033136;28;20029;-66
2023/07/20 10:29:21;;;;;;;1.35;0.70;;;;;;;;;;5032884;28;20447;-69
2023/07/20 10:31:48;;;;;;;2.50;0.90;;;;;;;;;;5032118;28;20029;-66
2023/07/20 10:34:13;;;;;;;0.75;0.63;;;;;;;;;;5033295;28;20032;-70
2023/07/20 10:36:50;;;;;;;1.08;0.60;;;;;;;;;;5033347;28;20025;-67
2023/07/20 10:39:27;;;;;;;1.00;0.70;;;;;;;;;;5032787;28;20037;-68
2023/07/20 10:42:06;;;;;;;2.13;0.68;;;;;;;;;;5027870;28;20087;-68
2023/07/20 10:44:32;;;;;;;1.08;0.50;;;;;;;;;;5013565;28;20033;-71
2023/07/20 10:47:09;;;;;;;0.65;0.50;;;;;;;;;;5013272;28;20022;-70
2023/07/20 10:49:35;;;;;;;1.73;0.68;;;;;;;;;;5013151;28;20041;-70
2023/07/20 10:52:04;;;;;;;1.30;0.55;;;;;;;;;;5013154;28;20467;-68
2023/07/20 10:54:33;;;;;;;2.28;0.80;;;;;;;;;;5028056;28;20033;-68
2023/07/20 10:57:22;;;;;;;2.88;0.75;;;;;;;;;;5013254;28;20033;-68
2023/07/20 10:59:48;;;;;;;0.50;0.40;;;;;;;;;;5013218;28;20108;-70
2023/07/20 11:02:17;;;;;;;3.97;0.63;;;;;;;;;;5013051;28;20081;-76
2023/07/20 11:04:44;;;;;;;2.00;0.60;;;;;;;;;;5039069;28;20474;-66
2023/07/20 11:07:09;;;;;;;1.45;0.50;;;;;;;;;;5052663;28;20061;-74
2023/07/20 11:09:36;;;;;;;1.95;0.50;;;;;;;;;;5052440;28;20102;-74
2023/07/20 11:12:15;;;;;;;1.33;0.70;;;;;;;;;;5052447;28;20478;-69
2023/07/20 11:14:43;;;;;;;1.48;0.60;;;;;;;;;;5052835;28;20073;-69
2023/07/20 11:17:14;;;;;;;1.90;0.63;;;;;;;;;;5052442;28;20033;-76
2023/07/20 11:19:43;;;;;;;1.95;0.60;;;;;;;;;;5045597;28;20026;-70
2023/07/20 11:22:09;;;;;;;1.13;0.63;;;;;;;;;;5031443;28;20112;-67
2023/07/20 11:24:39;;;;;;;4.32;0.70;;;;;;;;;;5032007;28;20037;-68
2023/07/20 11:27:05;;;;;;;0.70;0.50;;;;;;;;;;5032429;28;20121;-70
2023/07/20 11:29:30;;;;;;;3.78;0.50;;;;;;;;;;5032401;28;20112;-68
2023/07/20 11:31:57;;;;;;;0.82;0.45;;;;;;;;;;5032471;28;20531;-73
2023/07/20 11:34:22;;;;;;;6.15;0.73;;;;;;;;;;5032360;28;20061;-66
2023/07/20 11:36:50;;;;;;;1.45;0.60;;;;;;;;;;5032596;28;20068;-74
2023/07/20 11:39:19;;;;;;;1.08;0.60;;;;;;;;;;5032058;28;20522;-68
2023/07/20 11:41:49;;;;;;;2.28;0.70;;;;;;;;;;5028019;28;20404;-68
2023/07/20 11:44:27;;;;;;;1.80;0.63;;;;;;;;;;5012534;28;20113;-67
2023/07/20 11:47:10;;;;;;;2.30;0.90;;;;;;;;;;5012595;28;20048;-72
2023/07/20 11:49:43;;;;;;;1.35;0.70;;;;;;;;;;5012619;28;20069;-74
2023/07/20 11:52:16;;;;;;;1.42;0.68;;;;;;;;;;5012108;28;20034;-74
2023/07/20 11:54:42;;;;;;;1.27;0.57;;;;;;;;;;5012604;28;20034;-75
2023/07/20 11:57:19;;;;;;;1.35;0.50;;;;;;;;;;5012548;28;20105;-74
2023/07/20 11:59:59;;;;;;;1.35;0.60;;;;;;;;;;5012438;28;20096;-75
2023/07/20 12:02:27;;;;;;;1.65;0.80;;;;;;;;;;5012497;28;20026;-74
2023/07/20 12:04:54;;;;;;;1.70;0.95;;;;;;;;;;5036716;28;20025;-74
2023/07/20 12:07:20;;;;;;;4.85;0.80;;;;;;;;;;5051787;28;20040;-74
2023/07/20 12:10:10;;;;;;;1.75;0.60;;;;;;;;;;5052040;28;20075;-74
2023/07/20 12:12:43;;;;;;;1.40;0.50;;;;;;;;;;5051876;28;20025;-74
2023/07/20 12:15:20;;;;;;;0.88;0.50;;;;;;;;;;5051934;28;20276;-74
2023/07/20 12:17:48;;;;;;;7.63;0.85;;;;;;;;;;5051922;28;20029;-74
2023/07/20 12:20:35;;;;;;;0.70;0.50;;;;;;;;;;5040210;28;20025;-73
2023/07/20 12:23:04;;;;;;;1.00;0.50;;;;;;;;;;5031242;28;20017;-74
2023/07/20 12:25:48;;;;;;;1.20;0.52;;;;;;;;;;5031725;28;20152;-68
2023/07/20 12:28:15;;;;;;;1.80;0.50;;;;;;;;;;5031538;28;20029;-66
2023/07/20 12:30:42;;;;;;;2.65;0.68;;;;;;;;;;5031862;28;20483;-68
2023/07/20 12:33:08;;;;;;;2.60;0.50;;;;;;;;;;5032067;28;20466;-72
2023/07/20 12:35:34;;;;;;;1.88;0.60;;;;;;;;;;5035312;28;20064;-72
2023/07/20 12:37:59;;;;;;;0.73;0.60;;;;;;;;;;5035837;28;20029;-69
2023/07/20 12:40:25;;;;;;;2.65;0.60;;;;;;;;;;5035110;28;20033;-71
2023/07/20 12:42:51;;;;;;;1.42;0.50;;;;;;;;;;5021996;28;20026;-71
2023/07/20 12:45:16;;;;;;;1.10;0.60;;;;;;;;;;5015600;28;20026;-69
2023/07/20 12:47:43;;;;;;;5.82;0.70;;;;;;;;;;5015352;28;20042;-68
2023/07/20 12:50:12;;;;;;;3.33;0.57;;;;;;;;;;5015038;28;20033;-73
2023/07/20 12:52:39;;;;;;;1.80;0.73;;;;;;;;;;5023530;28;20034;-66
2023/07/20 12:55:06;;;;;;;1.90;0.60;;;;;;;;;;5034978;28;20108;-74
2023/07/20 12:57:32;;;;;;;0.93;0.60;;;;;;;;;;5035004;28;20018;-71
2023/07/20 12:59:58;;;;;;;1.17;0.80;;;;;;;;;;5035206;28;20139;-67
2023/07/20 13:02:23;;;;;;;3.38;0.80;;;;;;;;;;5035094;28;20045;-72
2023/07/20 13:04:49;;;;;;;2.00;0.70;;;;;;;;;;5034656;28;20052;-69
2023/07/20 13:07:14;;;;;;;0.60;0.50;;;;;;;;;;5035037;28;20076;-68
2023/07/20 13:09:40;;;;;;;2.95;0.57;;;;;;;;;;5034803;28;20092;-73
2023/07/20 13:12:06;;;;;;;1.33;0.60;;;;;;;;;;5034855;28;20064;-68
2023/07/20 13:14:32;;;;;;;1.05;0.50;;;;;;;;;;5034850;28;20076;-72
2023/07/20 13:16:57;;;;;;;2.17;0.65;;;;;;;;;;5034807;28;20025;-75
2023/07/20 13:19:22;;;;;;;5.07;0.70;;;;;;;;;;5034352;28;20076;-73
2023/07/20 13:21:48;;;;;;;1.85;0.60;;;;;;;;;;5034771;28;20439;-72
2023/07/20 13:24:13;;;;;;;4.70;0.90;;;;;;;;;;5034493;28;20037;-68
2023/07/20 13:26:39;;;;;;;2.83;0.80;;;;;;;;;;5034600;28;20025;-68
2023/07/20 13:29:04;;;;;;;1.10;0.55;;;;;;;;;;5034067;28;20109;-76
2023/07/20 13:31:30;;;;;;;2.67;0.70;;;;;;;;;;5034338;28;20018;-75
2023/07/20 13:33:56;;;;;;;2.30;0.60;;;;;;;;;;5034398;28;20021;-75
2023/07/20 13:36:22;;;;;;;0.80;0.47;;;;;;;;;;5034232;28;20033;-72
2023/07/20 13:38:48;;;;;;;3.33;0.73;;;;;;;;;;5034384;28;20025;-76
2023/07/20 13:41:15;;;;;;;0.63;0.40;;;;;;;;;;5034029;28;20490;-76
2023/07/20 13:43:40;;;;;;;1.73;0.65;;;;;;;;;;5014506;28;20021;-76
2023/07/20 13:46:06;;;;;;;2.40;0.90;;;;;;;;;;5013211;28;20029;-76
2023/07/20 13:48:31;;;;;;;1.75;0.55;;;;;;;;;;5014103;28;20399;-74
2023/07/20 13:50:57;;;;;;;1.88;0.65;;;;;;;;;;5014345;28;20026;-76
2023/07/20 13:53:22;;;;;;;0.47;0.40;;;;;;;;;;5014237;28;20391;-75
2023/07/20 13:55:48;;;;;;;1.50;0.65;;;;;;;;;;5014238;28;20026;-76
2023/07/20 13:58:14;;;;;;;5.20;0.90;;;;;;;;;;5014099;28;20112;-73
2023/07/20 14:00:39;;;;;;;1.80;0.70;;;;;;;;;;5013895;28;20029;-74
2023/07/20 14:03:05;;;;;;;3.97;0.98;;;;;;;;;;5013814;28;20046;-73
2023/07/20 14:05:30;;;;;;;1.92;0.70;;;;;;;;;;5047115;28;20032;-74
2023/07/20 14:07:56;;;;;;;1.75;0.80;;;;;;;;;;5053824;28;20033;-74
2023/07/20 14:10:21;;;;;;;5.07;1.00;;;;;;;;;;5053644;28;20083;-75
2023/07/20 14:12:47;;;;;;;1.23;0.80;;;;;;;;;;5053501;28;20216;-76
2023/07/20 14:15:12;;;;;;;2.22;0.85;;;;;;;;;;5052017;28;20074;-74
2023/07/20 14:17:37;;;;;;;2.58;0.90;;;;;;;;;;5053229;28;20089;-75
2023/07/20 14:20:05;;;;;;;4.10;0.90;;;;;;;;;;5043333;28;20501;-73
2023/07/20 14:22:31;;;;;;;1.83;0.68;;;;;;;;;;5033414;28;20025;-76
2023/07/20 14:24:57;;;;;;;1.25;0.77;;;;;;;;;;5033555;28;20021;-76
2023/07/20 14:27:22;;;;;;;1.75;0.70;;;;;;;;;;5033244;28;20030;-76
2023/07/20 14:29:48;;;;;;;2.78;0.80;;;;;;;;;;5033194;28;20526;-75
2023/07/20 14:32:14;;;;;;;2.15;0.90;;;;;;;;;;5032734;28;20029;-74
2023/07/20 14:34:40;;;;;;;2.72;0.77;;;;;;;;;;5033344;28;20379;-74
2023/07/20 14:37:06;;;;;;;2.63;0.77;;;;;;;;;;5033239;28;20056;-76
2023/07/20 14:39:31;;;;;;;3.35;1.08;;;;;;;;;;5033256;28;20391;-71
2023/07/20 14:41:57;;;;;;;4.95;1.05;;;;;;;;;;5027227;28;20049;-75
2023/07/20 14:44:23;;;;;;;3.85;1.10;;;;;;;;;;5013535;28;20062;-75